Aqualink II — WDF7372 — position and weather

sailwx.info

Track history (hours):
 
Tides and Currents Weather Stations Pressure Air Temp Water Temp Dewpoint Dewpoint Depression Visibility Wind Speed Wind Dir Waves Ship Positions

Aqualink II

Owner: Catalina Channel Express Inc, San Pedro, CA. More information available from US FCC via Universal Licensing System and Coast Guard Vessel Documentation Center.

Last reported at 2017-Sep-25 01:00 UTC. Time now 2017-Sep-25 01:03 UTC.
Position N 33°46' W 118°12'.

Length 22 m.

Type: Ship. MMSI: 367483850.

Date/timePositionNaut miles runAvg speedWind from/ knotsBaromVisibWave heightAir tempDewpointWater temp
2017-Sep-25 01:00N 33°46' W 118°12'4 7.4
2017-Sep-25 00:27N 33°45' W 118°07'4 8.1
2017-Sep-25 00:00N 33°45' W 118°11'0 0.3
2017-Sep-24 23:30N 33°45' W 118°12'4 6.4
2017-Sep-24 22:54N 33°45' W 118°07'4 6.6
2017-Sep-24 22:18N 33°46' W 118°12'0 0.1
2017-Sep-24 21:32N 33°46' W 118°12'1 4.4
2017-Sep-24 21:22N 33°45' W 118°11'3 6.8
2017-Sep-24 20:52N 33°45' W 118°07'4 9.6
2017-Sep-24 20:30N 33°45' W 118°11'1 1.0
2017-Sep-24 20:00N 33°46' W 118°12'0 0.3
2017-Sep-24 18:26N 33°45' W 118°11'1 1.0
2017-Sep-24 17:42N 33°45' W 118°10'1 4.1
2017-Sep-24 17:27N 33°45' W 118°12'0 0.0
2017-Sep-24 17:00N 33°45' W 118°12'0 0.0
2017-Sep-24 16:30N 33°45' W 118°12'0 0.0
2017-Sep-24 16:00N 33°45' W 118°12'0 0.0
2017-Sep-24 15:30N 33°45' W 118°12'0 0.0
2017-Sep-24 15:00N 33°45' W 118°12'0 0.0
2017-Sep-24 14:30N 33°45' W 118°12'1 0.1
2017-Sep-24 06:10N 33°46' W 118°12'1 2.2
2017-Sep-24 05:52N 33°45' W 118°11'1 1.5
2017-Sep-24 05:02N 33°45' W 118°10'119.9
2017-Sep-24 04:58N 33°45' W 118°11'1 1.1
2017-Sep-24 03:41N 33°45' W 118°09'210.5
2017-Sep-24 03:30N 33°45' W 118°12'1 1.0
2017-Sep-24 03:00N 33°46' W 118°12'0 0.5
2017-Sep-24 02:23N 33°45' W 118°12'0 0.3
2017-Sep-24 01:26N 33°45' W 118°12'0 0.9
2017-Sep-24 00:55N 33°46' W 118°12'1 0.7
2017-Sep-23 23:19N 33°45' W 118°10'  
2017-Sep-21 16:59N 33°45' W 118°12'  
2017-Sep-18 00:07N 33°45' W 118°11'1 0.3
2017-Sep-17 20:42N 33°45' W 118°09'2 0.1
2017-Sep-17 02:59N 33°46' W 118°12'0 0.0
2017-Sep-17 02:26N 33°46' W 118°12'4 1.8
2017-Sep-17 00:12N 33°44' W 118°07'4 2.0
2017-Sep-16 22:11N 33°46' W 118°12'0 0.0
2017-Sep-16 21:41N 33°46' W 118°12'0 0.0
2017-Sep-16 20:04N 33°46' W 118°12'1 0.0
2017-Sep-16 06:37N 33°46' W 118°11'1 1.5
2017-Sep-16 06:14N 33°46' W 118°12'0 0.2
2017-Sep-16 05:56N 33°46' W 118°12'4 5.1
2017-Sep-16 05:10N 33°44' W 118°07'4 8.6
2017-Sep-16 04:42N 33°46' W 118°12'1 0.9
2017-Sep-16 03:35N 33°45' W 118°11'1 8.5
2017-Sep-16 03:30N 33°45' W 118°12'0 0.0
2017-Sep-16 00:00N 33°45' W 118°12'4 3.1
2017-Sep-15 22:48N 33°44' W 118°07'4 2.9
2017-Sep-15 21:26N 33°46' W 118°12'2 2.0
2017-Sep-15 20:32N 33°45' W 118°10'119.6
2017-Sep-15 20:30N 33°45' W 118°10'1 2.2
2017-Sep-15 20:00N 33°46' W 118°12'0 0.1
2017-Sep-15 14:54N 33°45' W 118°12'  
Track history (hours):
 
Tides and Currents Weather Stations Pressure Air Temp Water Temp Dewpoint Dewpoint Depression Visibility Wind Speed Wind Dir Waves Ship Positions

Aqualink II

Owner: Catalina Channel Express Inc, San Pedro, CA. More information available from US FCC via Universal Licensing System and Coast Guard Vessel Documentation Center.

Last reported at 2017-Sep-25 01:00 UTC. Time now 2017-Sep-25 01:03 UTC.
Position N 33°46' W 118°12'.

Length 22 m.

Type: Ship. MMSI: 367483850.

Date/timePositionNaut miles runAvg speedWind from/ knotsBaromVisibWave heightAir tempDewpointWater temp
2017-Sep-25 01:00N 33°46' W 118°12'4 7.4
2017-Sep-25 00:27N 33°45' W 118°07'4 8.1
2017-Sep-25 00:00N 33°45' W 118°11'0 0.3
2017-Sep-24 23:30N 33°45' W 118°12'4 6.4
2017-Sep-24 22:54N 33°45' W 118°07'4 6.6
2017-Sep-24 22:18N 33°46' W 118°12'0 0.1
2017-Sep-24 21:32N 33°46' W 118°12'1 4.4
2017-Sep-24 21:22N 33°45' W 118°11'3 6.8
2017-Sep-24 20:52N 33°45' W 118°07'4 9.6
2017-Sep-24 20:30N 33°45' W 118°11'1 1.0
2017-Sep-24 20:00N 33°46' W 118°12'0 0.3
2017-Sep-24 18:26N 33°45' W 118°11'1 1.0
2017-Sep-24 17:42N 33°45' W 118°10'1 4.1
2017-Sep-24 17:27N 33°45' W 118°12'0 0.0
2017-Sep-24 17:00N 33°45' W 118°12'0 0.0
2017-Sep-24 16:30N 33°45' W 118°12'0 0.0
2017-Sep-24 16:00N 33°45' W 118°12'0 0.0
2017-Sep-24 15:30N 33°45' W 118°12'0 0.0
2017-Sep-24 15:00N 33°45' W 118°12'0 0.0
2017-Sep-24 14:30N 33°45' W 118°12'1 0.1
2017-Sep-24 06:10N 33°46' W 118°12'1 2.2
2017-Sep-24 05:52N 33°45' W 118°11'1 1.5
2017-Sep-24 05:02N 33°45' W 118°10'119.9
2017-Sep-24 04:58N 33°45' W 118°11'1 1.1
2017-Sep-24 03:41N 33°45' W 118°09'210.5
2017-Sep-24 03:30N 33°45' W 118°12'1 1.0
2017-Sep-24 03:00N 33°46' W 118°12'0 0.5
2017-Sep-24 02:23N 33°45' W 118°12'0 0.3
2017-Sep-24 01:26N 33°45' W 118°12'0 0.9
2017-Sep-24 00:55N 33°46' W 118°12'1 0.7
2017-Sep-23 23:19N 33°45' W 118°10'  
2017-Sep-21 16:59N 33°45' W 118°12'  
2017-Sep-18 00:07N 33°45' W 118°11'1 0.3
2017-Sep-17 20:42N 33°45' W 118°09'2 0.1
2017-Sep-17 02:59N 33°46' W 118°12'0 0.0
2017-Sep-17 02:26N 33°46' W 118°12'4 1.8
2017-Sep-17 00:12N 33°44' W 118°07'4 2.0
2017-Sep-16 22:11N 33°46' W 118°12'0 0.0
2017-Sep-16 21:41N 33°46' W 118°12'0 0.0
2017-Sep-16 20:04N 33°46' W 118°12'1 0.0
2017-Sep-16 06:37N 33°46' W 118°11'1 1.5
2017-Sep-16 06:14N 33°46' W 118°12'0 0.2
2017-Sep-16 05:56N 33°46' W 118°12'4 5.1
2017-Sep-16 05:10N 33°44' W 118°07'4 8.6
2017-Sep-16 04:42N 33°46' W 118°12'1 0.9
2017-Sep-16 03:35N 33°45' W 118°11'1 8.5
2017-Sep-16 03:30N 33°45' W 118°12'0 0.0
2017-Sep-16 00:00N 33°45' W 118°12'4 3.1
2017-Sep-15 22:48N 33°44' W 118°07'4 2.9
2017-Sep-15 21:26N 33°46' W 118°12'2 2.0
2017-Sep-15 20:32N 33°45' W 118°10'119.6
2017-Sep-15 20:30N 33°45' W 118°10'1 2.2
2017-Sep-15 20:00N 33°46' W 118°12'0 0.1
2017-Sep-15 14:54N 33°45' W 118°12'  

Dump ship's entire track history